PWSweather.com
Personal Weather Stations
Station Observations
PICKERING
North Yorkshire, PickeringGB

North YorkshirePickeringGB

Lat: 54.2494, Lon: -0.7725

Elevation: 192

Station Type: Oregon Scientific WMR100

http://www.yorkshirewalker.co.uk/weather/

Latest ConditionsUpdated 10:55:01 PM GMT Wednesday, Aug 15, 2018
Currently Today's Max Today's Min Today's Average
Temperature 63.9°F17.7°C 77.4°F25.2°C 62.6°F17.0°C 70.1°F21.2°C
Dew Point 57.2°F14.0°C 62.6°F17.0°C 55.4°F13.0°C 59.5°F15.3°C
Winds 2.7 mph S4.3 kmh S 12.1 mph -19.5 kmh - - 5.0 mph 8.0 kmh
Wind Gusts 2.7 mph4.3 kmh 17.2 mph27.7 kmh - -
Humidity 80% 80% 58% 69%
Pressure 29.56 in1001.0 mb 29.74 in1007.1 mb 29.56 in1001.0 mb -
Precipitation - 0.06 in1.5 mm - -
Hour Temp Dew Point Humidity Winds Wind Gusts Pressure Precip Precip Rate Daily Precip Total
10:55 PM 63.9°F17.7°C 57.2°F14.0°C 80% 2.7 mph S4.3 kmh S 2.7 mph4.3 kmh 29.56 in1001.0 mb 0.00 in0.0 mm 0.00 in0.0 mm 0.06 in1.5 mm
10:50 PM 63.9°F17.7°C 57.2°F14.0°C 80% 2.7 mph S4.3 kmh S 2.7 mph4.3 kmh 29.56 in1001.0 mb 0.00 in0.0 mm 0.00 in0.0 mm 0.06 in1.5 mm
10:45 PM 63.9°F17.7°C 57.2°F14.0°C 79% 2.7 mph S4.3 kmh S 2.7 mph4.3 kmh 29.56 in1001.0 mb 0.00 in0.0 mm 0.00 in0.0 mm 0.06 in1.5 mm
10:40 PM 63.9°F17.7°C 57.2°F14.0°C 79% 2.7 mph S4.3 kmh S 2.7 mph4.3 kmh 29.56 in1001.0 mb 0.00 in0.0 mm 0.00 in0.0 mm 0.06 in1.5 mm
10:35 PM 63.9°F17.7°C 57.2°F14.0°C 79% 2.7 mph S4.3 kmh S 2.7 mph4.3 kmh 29.59 in1002.0 mb 0.00 in0.0 mm 0.00 in0.0 mm 0.06 in1.5 mm
10:30 PM 64.0°F17.8°C 57.2°F14.0°C 79% 2.7 mph S4.3 kmh S 2.7 mph4.3 kmh 29.59 in1002.0 mb 0.00 in0.0 mm 0.00 in0.0 mm 0.06 in1.5 mm
10:25 PM 64.4°F18.0°C 57.2°F14.0°C 78% 2.7 mph S4.3 kmh S 2.7 mph4.3 kmh 29.59 in1002.0 mb 0.00 in0.0 mm 0.00 in0.0 mm 0.06 in1.5 mm
10:20 PM 64.9°F18.3°C 57.2°F14.0°C 78% 2.7 mph S4.3 kmh S 2.7 mph4.3 kmh 29.59 in1002.0 mb 0.00 in0.0 mm 0.00 in0.0 mm 0.06 in1.5 mm
10:15 PM 65.5°F18.6°C 59.0°F15.0°C 78% 2.7 mph S4.3 kmh S 2.7 mph4.3 kmh 29.59 in1002.0 mb 0.00 in0.0 mm 0.00 in0.0 mm 0.06 in1.5 mm
10:10 PM 65.5°F18.6°C 59.0°F15.0°C 77% 2.7 mph S4.3 kmh S 2.7 mph4.3 kmh 29.59 in1002.0 mb 0.00 in0.0 mm 0.00 in0.0 mm 0.06 in1.5 mm
10:05 PM 65.5°F18.6°C 59.0°F15.0°C 78% 4.2 mph S6.8 kmh S 7.8 mph12.6 kmh 29.59 in1002.0 mb 0.00 in0.0 mm 0.00 in0.0 mm 0.06 in1.5 mm
10:00 PM 65.5°F18.6°C 59.0°F15.0°C 77% 6.5 mph S10.5 kmh S 7.8 mph12.6 kmh 29.59 in1002.0 mb 0.00 in0.0 mm 0.00 in0.0 mm 0.06 in1.5 mm
09:55 PM 65.5°F18.6°C 59.0°F15.0°C 77% 5.3 mph S8.5 kmh S 7.8 mph12.6 kmh 29.59 in1002.0 mb 0.00 in0.0 mm 0.00 in0.0 mm 0.06 in1.5 mm
09:50 PM 65.5°F18.6°C 59.0°F15.0°C 78% 3.9 mph SSW6.3 kmh SSW 7.8 mph12.6 kmh 29.59 in1002.0 mb 0.00 in0.0 mm 0.00 in0.0 mm 0.06 in1.5 mm
09:45 PM 65.7°F18.7°C 59.0°F15.0°C 78% 3.7 mph SW6.0 kmh SW 3.8 mph6.1 kmh 29.59 in1002.0 mb 0.00 in0.0 mm 0.00 in0.0 mm 0.06 in1.5 mm
09:40 PM 65.7°F18.7°C 59.0°F15.0°C 78% 3.9 mph SW6.3 kmh SW 5.4 mph8.7 kmh 29.59 in1002.0 mb 0.00 in0.0 mm 0.00 in0.0 mm 0.06 in1.5 mm
09:35 PM 65.7°F18.7°C 59.0°F15.0°C 78% 4.3 mph SSW6.9 kmh SSW 5.4 mph8.7 kmh 29.59 in1002.0 mb 0.00 in0.0 mm 0.00 in0.0 mm 0.06 in1.5 mm
09:30 PM 65.7°F18.7°C 59.0°F15.0°C 77% 3.4 mph S5.5 kmh S 5.4 mph8.7 kmh 29.59 in1002.0 mb 0.00 in0.0 mm 0.00 in0.0 mm 0.06 in1.5 mm
09:25 PM 65.7°F18.7°C 59.0°F15.0°C 78% 2.6 mph S4.2 kmh S 3.6 mph5.8 kmh 29.59 in1002.0 mb 0.00 in0.0 mm 0.00 in0.0 mm 0.06 in1.5 mm
09:20 PM 65.7°F18.7°C 59.0°F15.0°C 78% 1.1 mph WSW1.8 kmh WSW 1.1 mph1.8 kmh 29.59 in1002.0 mb 0.00 in0.0 mm 0.00 in0.0 mm 0.06 in1.5 mm
09:15 PM 65.7°F18.7°C 59.0°F15.0°C 77% 2.9 mph SSW4.7 kmh SSW 2.9 mph4.7 kmh 29.59 in1002.0 mb 0.00 in0.0 mm 0.00 in0.0 mm 0.06 in1.5 mm
09:10 PM 65.8°F18.8°C 59.0°F15.0°C 77% 2.9 mph SSW4.7 kmh SSW 2.9 mph4.7 kmh 29.59 in1002.0 mb 0.00 in0.0 mm 0.00 in0.0 mm 0.06 in1.5 mm
09:05 PM 65.8°F18.8°C 59.0°F15.0°C 78% 2.9 mph SSW4.7 kmh SSW 2.9 mph4.7 kmh 29.59 in1002.0 mb 0.00 in0.0 mm 0.00 in0.0 mm 0.06 in1.5 mm
09:00 PM 65.8°F18.8°C 59.0°F15.0°C 78% 2.9 mph SSW4.7 kmh SSW 2.9 mph4.7 kmh 29.59 in1002.0 mb 0.00 in0.0 mm 0.00 in0.0 mm 0.06 in1.5 mm
08:55 PM 66.0°F18.9°C 59.0°F15.0°C 77% 2.9 mph SSW4.7 kmh SSW 2.9 mph4.7 kmh 29.59 in1002.0 mb 0.00 in0.0 mm 0.00 in0.0 mm 0.06 in1.5 mm
08:50 PM 66.0°F18.9°C 59.0°F15.0°C 77% 2.9 mph SSW4.7 kmh SSW 2.9 mph4.7 kmh 29.59 in1002.0 mb 0.00 in0.0 mm 0.00 in0.0 mm 0.06 in1.5 mm
08:45 PM 66.2°F19.0°C 59.0°F15.0°C 76% 2.9 mph SSW4.7 kmh SSW 2.9 mph4.7 kmh 29.59 in1002.0 mb 0.00 in0.0 mm 0.00 in0.0 mm 0.06 in1.5 mm
08:40 PM 66.2°F19.0°C 59.0°F15.0°C 76% 2.9 mph SSW4.7 kmh SSW 2.9 mph4.7 kmh 29.59 in1002.0 mb 0.00 in0.0 mm 0.00 in0.0 mm 0.06 in1.5 mm
08:35 PM 66.2°F19.0°C 59.0°F15.0°C 76% 2.9 mph SSW4.7 kmh SSW 2.9 mph4.7 kmh 29.62 in1003.0 mb 0.06 in1.5 mm 0.00 in0.0 mm 0.06 in1.5 mm
08:30 PM 66.2°F19.0°C 59.0°F15.0°C 75% 2.9 mph SSW4.7 kmh SSW 2.9 mph4.7 kmh 29.62 in1003.0 mb 0.06 in1.5 mm 0.00 in0.0 mm 0.06 in1.5 mm
08:25 PM 66.2°F19.0°C 59.0°F15.0°C 76% 2.8 mph SSW4.5 kmh SSW 2.9 mph4.7 kmh 29.62 in1003.0 mb 0.06 in1.5 mm 0.00 in0.0 mm 0.06 in1.5 mm
08:20 PM 66.2°F19.0°C 59.0°F15.0°C 76% 2.7 mph SSW4.3 kmh SSW 2.7 mph4.3 kmh 29.59 in1002.0 mb 0.06 in1.5 mm 0.00 in0.0 mm 0.06 in1.5 mm
08:15 PM 66.2°F19.0°C 59.0°F15.0°C 76% 2.5 mph SW4.0 kmh SW 2.7 mph4.3 kmh 29.59 in1002.0 mb 0.06 in1.5 mm 0.00 in0.0 mm 0.06 in1.5 mm
08:10 PM 66.4°F19.1°C 59.0°F15.0°C 76% 2.3 mph SW3.7 kmh SW 2.7 mph4.3 kmh 29.59 in1002.0 mb 0.06 in1.5 mm 0.00 in0.0 mm 0.06 in1.5 mm
08:05 PM 66.4°F19.1°C 59.0°F15.0°C 76% 3.7 mph SW6.0 kmh SW 5.8 mph9.3 kmh 29.59 in1002.0 mb 0.06 in1.5 mm 0.00 in0.0 mm 0.06 in1.5 mm
08:00 PM 66.6°F19.2°C 59.0°F15.0°C 76% 5.8 mph SW9.3 kmh SW 5.8 mph9.3 kmh 29.59 in1002.0 mb 0.06 in1.5 mm 0.00 in0.0 mm 0.06 in1.5 mm
07:55 PM 66.6°F19.2°C 59.0°F15.0°C 76% 5.8 mph SW9.3 kmh SW 5.8 mph9.3 kmh 29.59 in1002.0 mb 0.06 in1.5 mm 0.00 in0.0 mm 0.06 in1.5 mm
07:50 PM 66.9°F19.4°C 59.0°F15.0°C 75% 6.6 mph SW10.6 kmh SW 7.4 mph11.9 kmh 29.62 in1003.0 mb 0.06 in1.5 mm 0.00 in0.0 mm 0.06 in1.5 mm
07:45 PM 66.9°F19.4°C 59.0°F15.0°C 75% 7.4 mph SSW11.9 kmh SSW 7.4 mph11.9 kmh 29.62 in1003.0 mb 0.06 in1.5 mm 0.72 in18.3 mm 0.06 in1.5 mm
07:40 PM 67.1°F19.5°C 59.0°F15.0°C 74% 7.4 mph SSW11.9 kmh SSW 7.4 mph11.9 kmh 29.62 in1003.0 mb 0.00 in0.0 mm 0.00 in0.0 mm 0.00 in0.0 mm
07:35 PM 67.3°F19.6°C 59.0°F15.0°C 74% 7.0 mph SSW11.3 kmh SSW 10.1 mph16.3 kmh 29.62 in1003.0 mb 0.00 in0.0 mm 0.00 in0.0 mm 0.00 in0.0 mm
07:30 PM 67.8°F19.9°C 59.0°F15.0°C 73% 6.3 mph S10.1 kmh S 10.1 mph16.3 kmh 29.62 in1003.0 mb 0.00 in0.0 mm 0.00 in0.0 mm 0.00 in0.0 mm
07:25 PM 68.2°F20.1°C 59.0°F15.0°C 71% 6.1 mph S9.8 kmh S 8.7 mph14.0 kmh 29.62 in1003.0 mb 0.00 in0.0 mm 0.00 in0.0 mm 0.00 in0.0 mm
07:20 PM 68.7°F20.4°C 59.0°F15.0°C 70% 6.4 mph SSW10.3 kmh SSW 8.7 mph14.0 kmh 29.62 in1003.0 mb 0.00 in0.0 mm 0.00 in0.0 mm 0.00 in0.0 mm
07:15 PM 68.9°F20.5°C 59.0°F15.0°C 70% 6.3 mph SSW10.1 kmh SSW 6.3 mph10.1 kmh 29.62 in1003.0 mb 0.00 in0.0 mm 0.00 in0.0 mm 0.00 in0.0 mm
07:10 PM 69.4°F20.8°C 59.0°F15.0°C 68% 6.3 mph SSW10.1 kmh SSW 6.3 mph10.1 kmh 29.62 in1003.0 mb 0.00 in0.0 mm 0.00 in0.0 mm 0.00 in0.0 mm
07:05 PM 69.6°F20.9°C 59.0°F15.0°C 68% 6.3 mph SSW10.1 kmh SSW 6.3 mph10.1 kmh 29.62 in1003.0 mb 0.00 in0.0 mm 0.00 in0.0 mm 0.00 in0.0 mm
07:00 PM 70.2°F21.2°C 59.0°F15.0°C 67% 6.3 mph SSW10.1 kmh SSW 6.3 mph10.1 kmh 29.62 in1003.0 mb 0.00 in0.0 mm 0.00 in0.0 mm 0.00 in0.0 mm
06:55 PM 70.5°F21.4°C 59.0°F15.0°C 66% 6.3 mph SSW10.1 kmh SSW 6.3 mph10.1 kmh 29.62 in1003.0 mb 0.00 in0.0 mm 0.00 in0.0 mm 0.00 in0.0 mm
06:50 PM 70.7°F21.5°C 59.0°F15.0°C 66% 6.1 mph SW9.8 kmh SW 6.3 mph10.1 kmh 29.59 in1002.0 mb 0.00 in0.0 mm 0.00 in0.0 mm 0.00 in0.0 mm
06:45 PM 70.7°F21.5°C 59.0°F15.0°C 66% 6.0 mph SW9.7 kmh SW 6.3 mph10.1 kmh 29.59 in1002.0 mb 0.00 in0.0 mm 0.00 in0.0 mm 0.00 in0.0 mm
06:40 PM 70.9°F21.6°C 59.0°F15.0°C 65% 5.8 mph WSW9.3 kmh WSW 5.8 mph9.3 kmh 29.59 in1002.0 mb 0.00 in0.0 mm 0.00 in0.0 mm 0.00 in0.0 mm
06:35 PM 71.2°F21.8°C 59.0°F15.0°C 65% 4.6 mph WSW7.4 kmh WSW 5.8 mph9.3 kmh 29.62 in1003.0 mb 0.00 in0.0 mm 0.00 in0.0 mm 0.00 in0.0 mm
06:30 PM 71.6°F22.0°C 59.0°F15.0°C 63% 5.5 mph WSW8.9 kmh WSW 8.5 mph13.7 kmh 29.62 in1003.0 mb 0.00 in0.0 mm 0.00 in0.0 mm 0.00 in0.0 mm
06:25 PM 72.0°F22.2°C 59.0°F15.0°C 62% 7.7 mph WSW12.4 kmh WSW 8.5 mph13.7 kmh 29.62 in1003.0 mb 0.00 in0.0 mm 0.00 in0.0 mm 0.00 in0.0 mm
06:20 PM 72.1°F22.3°C 59.0°F15.0°C 62% 8.5 mph WSW13.7 kmh WSW 8.5 mph13.7 kmh 29.59 in1002.0 mb 0.00 in0.0 mm 0.00 in0.0 mm 0.00 in0.0 mm
06:15 PM 72.3°F22.4°C 59.0°F15.0°C 62% 12.1 mph W19.5 kmh W 12.1 mph19.5 kmh 29.59 in1002.0 mb 0.00 in0.0 mm 0.00 in0.0 mm 0.00 in0.0 mm
06:10 PM 72.7°F22.6°C 59.0°F15.0°C 62% 12.1 mph W19.5 kmh W 12.1 mph19.5 kmh 29.59 in1002.0 mb 0.00 in0.0 mm 0.00 in0.0 mm 0.00 in0.0 mm
06:05 PM 72.7°F22.6°C 59.0°F15.0°C 62% 12.1 mph W19.5 kmh W 12.1 mph19.5 kmh 29.59 in1002.0 mb 0.00 in0.0 mm 0.00 in0.0 mm 0.00 in0.0 mm
06:00 PM 72.9°F22.7°C 59.0°F15.0°C 61% 6.3 mph WSW10.1 kmh WSW 12.1 mph19.5 kmh 29.59 in1002.0 mb 0.00 in0.0 mm 0.00 in0.0 mm 0.00 in0.0 mm
05:55 PM 73.0°F22.8°C 59.0°F15.0°C 61% 5.5 mph WSW8.9 kmh WSW 12.1 mph19.5 kmh 29.59 in1002.0 mb 0.00 in0.0 mm 0.00 in0.0 mm 0.00 in0.0 mm
05:50 PM 73.2°F22.9°C 59.0°F15.0°C 61% 6.2 mph SW10.0 kmh SW 10.5 mph16.9 kmh 29.59 in1002.0 mb 0.00 in0.0 mm 0.00 in0.0 mm 0.00 in0.0 mm
05:45 PM 73.2°F22.9°C 59.0°F15.0°C 61% 5.9 mph SW9.5 kmh SW 10.5 mph16.9 kmh 29.59 in1002.0 mb 0.00 in0.0 mm 0.00 in0.0 mm 0.00 in0.0 mm
05:40 PM 73.4°F23.0°C 59.0°F15.0°C 61% 7.0 mph SW11.3 kmh SW 10.5 mph16.9 kmh 29.59 in1002.0 mb 0.00 in0.0 mm 0.00 in0.0 mm 0.00 in0.0 mm
05:35 PM 73.6°F23.1°C 59.0°F15.0°C 61% 6.0 mph SSW9.7 kmh SSW 6.0 mph9.7 kmh 29.59 in1002.0 mb 0.00 in0.0 mm 0.00 in0.0 mm 0.00 in0.0 mm
05:30 PM 73.8°F23.2°C 59.0°F15.0°C 60% 6.0 mph SSW9.7 kmh SSW 6.0 mph9.7 kmh 29.59 in1002.0 mb 0.00 in0.0 mm 0.00 in0.0 mm 0.00 in0.0 mm
05:25 PM 73.9°F23.3°C 59.0°F15.0°C 61% 6.0 mph SSW9.7 kmh SSW 6.0 mph9.7 kmh 29.59 in1002.0 mb 0.00 in0.0 mm 0.00 in0.0 mm 0.00 in0.0 mm
05:20 PM 74.1°F23.4°C 59.0°F15.0°C 61% 6.0 mph SSW9.7 kmh SSW 6.0 mph9.7 kmh 29.62 in1003.0 mb 0.00 in0.0 mm 0.00 in0.0 mm 0.00 in0.0 mm
05:15 PM 74.3°F23.5°C 60.8°F16.0°C 61% 6.0 mph SSW9.7 kmh SSW 6.0 mph9.7 kmh 29.62 in1003.0 mb 0.00 in0.0 mm 0.00 in0.0 mm 0.00 in0.0 mm
05:10 PM 74.7°F23.7°C 60.8°F16.0°C 61% 6.0 mph SSW9.7 kmh SSW 6.0 mph9.7 kmh 29.62 in1003.0 mb 0.00 in0.0 mm 0.00 in0.0 mm 0.00 in0.0 mm
05:05 PM 74.8°F23.8°C 60.8°F16.0°C 61% 6.0 mph SSW9.7 kmh SSW 6.0 mph9.7 kmh 29.62 in1003.0 mb 0.00 in0.0 mm 0.00 in0.0 mm 0.00 in0.0 mm
05:00 PM 75.0°F23.9°C 60.8°F16.0°C 60% 5.0 mph SSW8.0 kmh SSW 6.0 mph9.7 kmh 29.62 in1003.0 mb 0.00 in0.0 mm 0.00 in0.0 mm 0.00 in0.0 mm
04:55 PM 75.4°F24.1°C 60.8°F16.0°C 59% 5.2 mph SW8.4 kmh SW 8.5 mph13.7 kmh 29.62 in1003.0 mb 0.00 in0.0 mm 0.00 in0.0 mm 0.00 in0.0 mm
04:50 PM 75.4°F24.1°C 60.8°F16.0°C 59% 7.0 mph SW11.3 kmh SW 8.5 mph13.7 kmh 29.62 in1003.0 mb 0.00 in0.0 mm 0.00 in0.0 mm 0.00 in0.0 mm
04:45 PM 75.2°F24.0°C 60.8°F16.0°C 59% 7.8 mph SW12.6 kmh SW 8.5 mph13.7 kmh 29.62 in1003.0 mb 0.00 in0.0 mm 0.00 in0.0 mm 0.00 in0.0 mm
04:40 PM 75.6°F24.2°C 60.8°F16.0°C 59% 8.0 mph SW12.9 kmh SW 9.4 mph15.1 kmh 29.62 in1003.0 mb 0.00 in0.0 mm 0.00 in0.0 mm 0.00 in0.0 mm
04:35 PM 75.9°F24.4°C 60.8°F16.0°C 59% 9.1 mph S14.6 kmh S 9.4 mph15.1 kmh 29.62 in1003.0 mb 0.00 in0.0 mm 0.00 in0.0 mm 0.00 in0.0 mm
04:30 PM 75.7°F24.3°C 60.8°F16.0°C 59% 9.2 mph WSW14.8 kmh WSW 9.2 mph14.8 kmh 29.62 in1003.0 mb 0.00 in0.0 mm 0.00 in0.0 mm 0.00 in0.0 mm
04:25 PM 75.7°F24.3°C 60.8°F16.0°C 59% 9.2 mph WSW14.8 kmh WSW 9.2 mph14.8 kmh 29.62 in1003.0 mb 0.00 in0.0 mm 0.00 in0.0 mm 0.00 in0.0 mm
04:20 PM 75.9°F24.4°C 60.8°F16.0°C 59% 9.2 mph WSW14.8 kmh WSW 9.2 mph14.8 kmh 29.62 in1003.0 mb 0.00 in0.0 mm 0.00 in0.0 mm 0.00 in0.0 mm
04:15 PM 75.7°F24.3°C 60.8°F16.0°C 59% 8.7 mph WSW14.0 kmh WSW 10.1 mph16.3 kmh 29.62 in1003.0 mb 0.00 in0.0 mm 0.00 in0.0 mm 0.00 in0.0 mm
04:10 PM 75.6°F24.2°C 60.8°F16.0°C 59% 5.8 mph SW9.3 kmh SW 10.1 mph16.3 kmh 29.62 in1003.0 mb 0.00 in0.0 mm 0.00 in0.0 mm 0.00 in0.0 mm
04:05 PM 74.8°F23.8°C 60.8°F16.0°C 60% 4.0 mph SW6.4 kmh SW 4.7 mph7.6 kmh 29.62 in1003.0 mb 0.00 in0.0 mm 0.00 in0.0 mm 0.00 in0.0 mm
04:00 PM 74.8°F23.8°C 60.8°F16.0°C 60% 4.3 mph WSW6.9 kmh WSW 4.7 mph7.6 kmh 29.62 in1003.0 mb 0.00 in0.0 mm 0.00 in0.0 mm 0.00 in0.0 mm
03:55 PM 75.2°F24.0°C 60.8°F16.0°C 59% 5.0 mph S8.0 kmh S 7.4 mph11.9 kmh 29.62 in1003.0 mb 0.00 in0.0 mm 0.00 in0.0 mm 0.00 in0.0 mm
03:50 PM 75.7°F24.3°C 60.8°F16.0°C 59% 5.2 mph S8.4 kmh S 7.4 mph11.9 kmh 29.62 in1003.0 mb 0.00 in0.0 mm 0.00 in0.0 mm 0.00 in0.0 mm
03:45 PM 75.9°F24.4°C 60.8°F16.0°C 59% 5.1 mph SSE8.2 kmh SSE 7.4 mph11.9 kmh 29.62 in1003.0 mb 0.00 in0.0 mm 0.00 in0.0 mm 0.00 in0.0 mm
03:40 PM 76.5°F24.7°C 60.8°F16.0°C 59% 3.4 mph SSW5.5 kmh SSW 3.4 mph5.5 kmh 29.62 in1003.0 mb 0.00 in0.0 mm 0.00 in0.0 mm 0.00 in0.0 mm
03:35 PM 77.4°F25.2°C 62.6°F17.0°C 58% 4.5 mph WSW7.2 kmh WSW 9.6 mph15.4 kmh 29.62 in1003.0 mb 0.00 in0.0 mm 0.00 in0.0 mm 0.00 in0.0 mm
03:30 PM 77.2°F25.1°C 60.8°F16.0°C 58% 6.9 mph W11.1 kmh W 10.5 mph16.9 kmh 29.62 in1003.0 mb 0.00 in0.0 mm 0.00 in0.0 mm 0.00 in0.0 mm
03:25 PM 77.2°F25.1°C 60.8°F16.0°C 58% 6.8 mph SW10.9 kmh SW 10.5 mph16.9 kmh 29.62 in1003.0 mb 0.00 in0.0 mm 0.00 in0.0 mm 0.00 in0.0 mm
03:20 PM 76.8°F24.9°C 62.6°F17.0°C 60% 5.7 mph SW9.2 kmh SW 8.5 mph13.7 kmh 29.65 in1004.1 mb 0.00 in0.0 mm 0.00 in0.0 mm 0.00 in0.0 mm
03:15 PM 77.0°F25.0°C 62.6°F17.0°C 59% 6.1 mph SW9.8 kmh SW 8.5 mph13.7 kmh 29.65 in1004.1 mb 0.00 in0.0 mm 0.00 in0.0 mm 0.00 in0.0 mm
03:10 PM 77.2°F25.1°C 62.6°F17.0°C 59% 5.1 mph SW8.2 kmh SW 10.1 mph16.3 kmh 29.65 in1004.1 mb 0.00 in0.0 mm 0.00 in0.0 mm 0.00 in0.0 mm
03:05 PM 76.6°F24.8°C 62.6°F17.0°C 60% 7.0 mph SW11.3 kmh SW 17.2 mph27.7 kmh 29.65 in1004.1 mb 0.00 in0.0 mm 0.00 in0.0 mm 0.00 in0.0 mm
03:00 PM 76.5°F24.7°C 62.6°F17.0°C 60% 8.8 mph SW14.2 kmh SW 17.2 mph27.7 kmh 29.65 in1004.1 mb 0.00 in0.0 mm 0.00 in0.0 mm 0.00 in0.0 mm
02:55 PM 76.5°F24.7°C 62.6°F17.0°C 61% 7.6 mph SSW12.2 kmh SSW 7.6 mph12.2 kmh 29.65 in1004.1 mb 0.00 in0.0 mm 0.00 in0.0 mm 0.00 in0.0 mm
02:50 PM 75.7°F24.3°C 62.6°F17.0°C 62% 7.6 mph SSW12.2 kmh SSW 7.6 mph12.2 kmh 29.65 in1004.1 mb 0.00 in0.0 mm 0.00 in0.0 mm 0.00 in0.0 mm
02:45 PM 75.0°F23.9°C 62.6°F17.0°C 63% 6.5 mph SSW10.5 kmh SSW 7.6 mph12.2 kmh 29.65 in1004.1 mb 0.00 in0.0 mm 0.00 in0.0 mm 0.00 in0.0 mm
02:40 PM 73.6°F23.1°C 60.8°F16.0°C 64% 4.8 mph SSW7.7 kmh SSW 7.6 mph12.2 kmh 29.65 in1004.1 mb 0.00 in0.0 mm 0.00 in0.0 mm 0.00 in0.0 mm
02:35 PM 73.4°F23.0°C 60.8°F16.0°C 64% 3.4 mph S5.5 kmh S 3.8 mph6.1 kmh 29.65 in1004.1 mb 0.00 in0.0 mm 0.00 in0.0 mm 0.00 in0.0 mm
02:30 PM 73.6°F23.1°C 60.8°F16.0°C 64% 3.3 mph S5.3 kmh S 3.4 mph5.5 kmh 29.65 in1004.1 mb 0.00 in0.0 mm 0.00 in0.0 mm 0.00 in0.0 mm
02:25 PM 73.2°F22.9°C 60.8°F16.0°C 65% 4.8 mph SSW7.7 kmh SSW 9.6 mph15.4 kmh 29.65 in1004.1 mb 0.00 in0.0 mm 0.00 in0.0 mm 0.00 in0.0 mm
02:20 PM 73.2°F22.9°C 60.8°F16.0°C 65% 5.9 mph SSW9.5 kmh SSW 9.6 mph15.4 kmh 29.65 in1004.1 mb 0.00 in0.0 mm 0.00 in0.0 mm 0.00 in0.0 mm
02:15 PM 73.2°F22.9°C 60.8°F16.0°C 65% 5.4 mph SSW8.7 kmh SSW 5.4 mph8.7 kmh 29.65 in1004.1 mb 0.00 in0.0 mm 0.00 in0.0 mm 0.00 in0.0 mm
02:10 PM 72.9°F22.7°C 60.8°F16.0°C 65% 5.4 mph SSW8.7 kmh SSW 5.4 mph8.7 kmh 29.65 in1004.1 mb 0.00 in0.0 mm 0.00 in0.0 mm 0.00 in0.0 mm
02:05 PM 72.7°F22.6°C 60.8°F16.0°C 65% 5.4 mph SSW8.7 kmh SSW 5.4 mph8.7 kmh 29.68 in1005.1 mb 0.00 in0.0 mm 0.00 in0.0 mm 0.00 in0.0 mm
02:00 PM 72.7°F22.6°C 60.8°F16.0°C 65% 5.4 mph SSW8.7 kmh SSW 5.4 mph8.7 kmh 29.68 in1005.1 mb 0.00 in0.0 mm 0.00 in0.0 mm 0.00 in0.0 mm
01:55 PM 72.3°F22.4°C 60.8°F16.0°C 65% 5.9 mph SSW9.5 kmh SSW 12.5 mph20.1 kmh 29.68 in1005.1 mb 0.00 in0.0 mm 0.00 in0.0 mm 0.00 in0.0 mm
01:50 PM 72.1°F22.3°C 60.8°F16.0°C 65% 6.2 mph SW10.0 kmh SW 12.5 mph20.1 kmh 29.68 in1005.1 mb 0.00 in0.0 mm 0.00 in0.0 mm 0.00 in0.0 mm
01:45 PM 72.0°F22.2°C 60.8°F16.0°C 65% 5.8 mph WSW9.3 kmh WSW 12.5 mph20.1 kmh 29.68 in1005.1 mb 0.00 in0.0 mm 0.00 in0.0 mm 0.00 in0.0 mm
01:40 PM 72.0°F22.2°C 60.8°F16.0°C 65% 5.8 mph WSW9.3 kmh WSW 8.7 mph14.0 kmh 29.68 in1005.1 mb 0.00 in0.0 mm 0.00 in0.0 mm 0.00 in0.0 mm
01:35 PM 72.1°F22.3°C 60.8°F16.0°C 65% 5.4 mph WSW8.7 kmh WSW 8.7 mph14.0 kmh 29.68 in1005.1 mb 0.00 in0.0 mm 0.00 in0.0 mm 0.00 in0.0 mm
01:30 PM 72.1°F22.3°C 60.8°F16.0°C 65% 5.2 mph SW8.4 kmh SW 8.7 mph14.0 kmh 29.68 in1005.1 mb 0.00 in0.0 mm 0.00 in0.0 mm 0.00 in0.0 mm
01:25 PM 72.1°F22.3°C 60.8°F16.0°C 65% 6.7 mph SW10.8 kmh SW 8.7 mph14.0 kmh 29.68 in1005.1 mb 0.00 in0.0 mm 0.00 in0.0 mm 0.00 in0.0 mm
01:20 PM 72.3°F22.4°C 60.8°F16.0°C 65% 7.1 mph SW11.4 kmh SW 7.8 mph12.6 kmh 29.68 in1005.1 mb 0.00 in0.0 mm 0.00 in0.0 mm 0.00 in0.0 mm
01:15 PM 72.5°F22.5°C 60.8°F16.0°C 65% 4.9 mph SW7.9 kmh SW 7.8 mph12.6 kmh 29.68 in1005.1 mb 0.00 in0.0 mm 0.00 in0.0 mm 0.00 in0.0 mm
01:10 PM 72.7°F22.6°C 60.8°F16.0°C 65% 4.5 mph WSW7.2 kmh WSW 8.7 mph14.0 kmh 29.68 in1005.1 mb 0.00 in0.0 mm 0.00 in0.0 mm 0.00 in0.0 mm
01:05 PM 72.5°F22.5°C 60.8°F16.0°C 65% 4.6 mph WSW7.4 kmh WSW 8.7 mph14.0 kmh 29.65 in1004.1 mb 0.00 in0.0 mm 0.00 in0.0 mm 0.00 in0.0 mm
01:00 PM 72.5°F22.5°C 60.8°F16.0°C 65% 4.0 mph SSW6.4 kmh SSW 5.6 mph9.0 kmh 29.65 in1004.1 mb 0.00 in0.0 mm 0.00 in0.0 mm 0.00 in0.0 mm
12:55 PM 72.7°F22.6°C 60.8°F16.0°C 65% 5.6 mph SSW9.0 kmh SSW 5.6 mph9.0 kmh 29.65 in1004.1 mb 0.00 in0.0 mm 0.00 in0.0 mm 0.00 in0.0 mm
12:50 PM 72.7°F22.6°C 60.8°F16.0°C 65% 5.6 mph SSW9.0 kmh SSW 5.6 mph9.0 kmh 29.68 in1005.1 mb 0.00 in0.0 mm 0.00 in0.0 mm 0.00 in0.0 mm
12:45 PM 72.3°F22.4°C 60.8°F16.0°C 65% 4.9 mph SSW7.9 kmh SSW 8.1 mph13.0 kmh 29.68 in1005.1 mb 0.00 in0.0 mm 0.00 in0.0 mm 0.00 in0.0 mm
12:40 PM 72.1°F22.3°C 60.8°F16.0°C 65% 4.5 mph SSW7.2 kmh SSW 8.1 mph13.0 kmh 29.68 in1005.1 mb 0.00 in0.0 mm 0.00 in0.0 mm 0.00 in0.0 mm
12:35 PM 72.3°F22.4°C 60.8°F16.0°C 65% 4.2 mph SW6.8 kmh SW 7.6 mph12.2 kmh 29.68 in1005.1 mb 0.00 in0.0 mm 0.00 in0.0 mm 0.00 in0.0 mm
12:30 PM 72.1°F22.3°C 60.8°F16.0°C 66% 4.2 mph SSW6.8 kmh SSW 7.6 mph12.2 kmh 29.68 in1005.1 mb 0.00 in0.0 mm 0.00 in0.0 mm 0.00 in0.0 mm
12:25 PM 72.0°F22.2°C 60.8°F16.0°C 66% 4.3 mph S6.9 kmh S 6.9 mph11.1 kmh 29.68 in1005.1 mb 0.00 in0.0 mm 0.00 in0.0 mm 0.00 in0.0 mm
12:20 PM 72.0°F22.2°C 60.8°F16.0°C 66% 4.6 mph S7.4 kmh S 6.9 mph11.1 kmh 29.68 in1005.1 mb 0.00 in0.0 mm 0.00 in0.0 mm 0.00 in0.0 mm
12:15 PM 72.3°F22.4°C 60.8°F16.0°C 66% 3.7 mph SSW6.0 kmh SSW 6.9 mph11.1 kmh 29.68 in1005.1 mb 0.00 in0.0 mm 0.00 in0.0 mm 0.00 in0.0 mm
12:10 PM 72.3°F22.4°C 60.8°F16.0°C 66% 3.2 mph SSW5.1 kmh SSW 4.7 mph7.6 kmh 29.68 in1005.1 mb 0.00 in0.0 mm 0.00 in0.0 mm 0.00 in0.0 mm
12:05 PM 72.3°F22.4°C 60.8°F16.0°C 66% 3.1 mph S5.0 kmh S 4.0 mph6.4 kmh 29.68 in1005.1 mb 0.00 in0.0 mm 0.00 in0.0 mm 0.00 in0.0 mm
12:00 PM 72.1°F22.3°C 60.8°F16.0°C 66% 3.0 mph S4.8 kmh S 4.0 mph6.4 kmh 29.68 in1005.1 mb 0.00 in0.0 mm 0.00 in0.0 mm 0.00 in0.0 mm
11:55 AM 72.0°F22.2°C 60.8°F16.0°C 66% 3.3 mph S5.3 kmh S 6.3 mph10.1 kmh 29.68 in1005.1 mb 0.00 in0.0 mm 0.00 in0.0 mm 0.00 in0.0 mm
11:50 AM 72.1°F22.3°C 60.8°F16.0°C 66% 4.2 mph SSE6.8 kmh SSE 6.3 mph10.1 kmh 29.68 in1005.1 mb 0.00 in0.0 mm 0.00 in0.0 mm 0.00 in0.0 mm
11:45 AM 72.7°F22.6°C 60.8°F16.0°C 65% 3.8 mph S6.1 kmh S 5.4 mph8.7 kmh 29.68 in1005.1 mb 0.00 in0.0 mm 0.00 in0.0 mm 0.00 in0.0 mm
11:40 AM 72.5°F22.5°C 60.8°F16.0°C 65% 3.6 mph SSW5.8 kmh SSW 6.5 mph10.5 kmh 29.68 in1005.1 mb 0.00 in0.0 mm 0.00 in0.0 mm 0.00 in0.0 mm
11:35 AM 72.1°F22.3°C 60.8°F16.0°C 65% 3.9 mph SW6.3 kmh SW 7.6 mph12.2 kmh 29.68 in1005.1 mb 0.00 in0.0 mm 0.00 in0.0 mm 0.00 in0.0 mm
11:30 AM 72.1°F22.3°C 60.8°F16.0°C 65% 3.8 mph SW6.1 kmh SW 7.6 mph12.2 kmh 29.68 in1005.1 mb 0.00 in0.0 mm 0.00 in0.0 mm 0.00 in0.0 mm
11:25 AM 72.0°F22.2°C 60.8°F16.0°C 66% 3.4 mph SW5.5 kmh SW 4.9 mph7.9 kmh 29.68 in1005.1 mb 0.00 in0.0 mm 0.00 in0.0 mm 0.00 in0.0 mm
11:20 AM 72.0°F22.2°C 60.8°F16.0°C 66% 3.7 mph SW6.0 kmh SW 5.6 mph9.0 kmh 29.68 in1005.1 mb 0.00 in0.0 mm 0.00 in0.0 mm 0.00 in0.0 mm
11:15 AM 72.0°F22.2°C 60.8°F16.0°C 65% 4.7 mph SW7.6 kmh SW 7.4 mph11.9 kmh 29.68 in1005.1 mb 0.00 in0.0 mm 0.00 in0.0 mm 0.00 in0.0 mm
11:10 AM 71.8°F22.1°C 59.0°F15.0°C 65% 4.3 mph SW6.9 kmh SW 7.4 mph11.9 kmh 29.68 in1005.1 mb 0.00 in0.0 mm 0.00 in0.0 mm 0.00 in0.0 mm
11:05 AM 71.8°F22.1°C 59.0°F15.0°C 65% 3.7 mph SW6.0 kmh SW 5.8 mph9.3 kmh 29.68 in1005.1 mb 0.00 in0.0 mm 0.00 in0.0 mm 0.00 in0.0 mm
11:00 AM 71.8°F22.1°C 59.0°F15.0°C 65% 4.5 mph SW7.2 kmh SW 11.0 mph17.7 kmh 29.68 in1005.1 mb 0.00 in0.0 mm 0.00 in0.0 mm 0.00 in0.0 mm
10:55 AM 72.5°F22.5°C 60.8°F16.0°C 65% 5.1 mph SW8.2 kmh SW 11.0 mph17.7 kmh 29.68 in1005.1 mb 0.00 in0.0 mm 0.00 in0.0 mm 0.00 in0.0 mm
10:50 AM 73.6°F23.1°C 60.8°F16.0°C 64% 4.7 mph SW7.6 kmh SW 5.6 mph9.0 kmh 29.68 in1005.1 mb 0.00 in0.0 mm 0.00 in0.0 mm 0.00 in0.0 mm
10:45 AM 72.0°F22.2°C 60.8°F16.0°C 65% 5.2 mph SW8.4 kmh SW 7.8 mph12.6 kmh 29.68 in1005.1 mb 0.00 in0.0 mm 0.00 in0.0 mm 0.00 in0.0 mm
10:40 AM 71.4°F21.9°C 59.0°F15.0°C 66% 6.2 mph SW10.0 kmh SW 7.8 mph12.6 kmh 29.68 in1005.1 mb 0.00 in0.0 mm 0.00 in0.0 mm 0.00 in0.0 mm
10:35 AM 71.6°F22.0°C 59.0°F15.0°C 66% 5.7 mph SW9.2 kmh SW 7.8 mph12.6 kmh 29.68 in1005.1 mb 0.00 in0.0 mm 0.00 in0.0 mm 0.00 in0.0 mm
10:30 AM 71.2°F21.8°C 59.0°F15.0°C 66% 5.7 mph SW9.2 kmh SW 7.8 mph12.6 kmh 29.68 in1005.1 mb 0.00 in0.0 mm 0.00 in0.0 mm 0.00 in0.0 mm
10:25 AM 71.4°F21.9°C 59.0°F15.0°C 66% 7.0 mph SW11.3 kmh SW 12.3 mph19.8 kmh 29.68 in1005.1 mb 0.00 in0.0 mm 0.00 in0.0 mm 0.00 in0.0 mm
10:20 AM 72.1°F22.3°C 60.8°F16.0°C 65% 6.4 mph SW10.3 kmh SW 12.3 mph19.8 kmh 29.68 in1005.1 mb 0.00 in0.0 mm 0.00 in0.0 mm 0.00 in0.0 mm
10:15 AM 72.3°F22.4°C 60.8°F16.0°C 65% 6.5 mph SW10.5 kmh SW 9.4 mph15.1 kmh 29.68 in1005.1 mb 0.00 in0.0 mm 0.00 in0.0 mm 0.00 in0.0 mm
10:10 AM 71.8°F22.1°C 59.0°F15.0°C 66% 8.3 mph SW13.4 kmh SW 9.4 mph15.1 kmh 29.68 in1005.1 mb 0.00 in0.0 mm 0.00 in0.0 mm 0.00 in0.0 mm
10:05 AM 72.3°F22.4°C 60.8°F16.0°C 66% 5.8 mph SSW9.3 kmh SSW 8.1 mph13.0 kmh 29.68 in1005.1 mb 0.00 in0.0 mm 0.00 in0.0 mm 0.00 in0.0 mm
10:00 AM 73.0°F22.8°C 60.8°F16.0°C 66% 4.5 mph S7.2 kmh S 5.6 mph9.0 kmh 29.68 in1005.1 mb 0.00 in0.0 mm 0.00 in0.0 mm 0.00 in0.0 mm
09:55 AM 72.7°F22.6°C 60.8°F16.0°C 66% 4.5 mph SSW7.2 kmh SSW 8.5 mph13.7 kmh 29.68 in1005.1 mb 0.00 in0.0 mm 0.00 in0.0 mm 0.00 in0.0 mm
09:50 AM 72.7°F22.6°C 60.8°F16.0°C 66% 3.6 mph SW5.8 kmh SW 8.5 mph13.7 kmh 29.68 in1005.1 mb 0.00 in0.0 mm 0.00 in0.0 mm 0.00 in0.0 mm
09:45 AM 71.6°F22.0°C 60.8°F16.0°C 67% 4.6 mph SW7.4 kmh SW 10.1 mph16.3 kmh 29.68 in1005.1 mb 0.00 in0.0 mm 0.00 in0.0 mm 0.00 in0.0 mm
09:40 AM 70.7°F21.5°C 60.8°F16.0°C 68% 6.3 mph SW10.1 kmh SW 10.1 mph16.3 kmh 29.68 in1005.1 mb 0.00 in0.0 mm 0.00 in0.0 mm 0.00 in0.0 mm
09:35 AM 72.0°F22.2°C 60.8°F16.0°C 67% 6.0 mph SW9.7 kmh SW 7.2 mph11.6 kmh 29.68 in1005.1 mb 0.00 in0.0 mm 0.00 in0.0 mm 0.00 in0.0 mm
09:30 AM 72.1°F22.3°C 60.8°F16.0°C 67% 5.2 mph SSW8.4 kmh SSW 6.0 mph9.7 kmh 29.68 in1005.1 mb 0.00 in0.0 mm 0.00 in0.0 mm 0.00 in0.0 mm
09:25 AM 70.2°F21.2°C 60.8°F16.0°C 70% 4.4 mph SW7.1 kmh SW 6.0 mph9.7 kmh 29.68 in1005.1 mb 0.00 in0.0 mm 0.00 in0.0 mm 0.00 in0.0 mm
09:20 AM 68.2°F20.1°C 59.0°F15.0°C 71% 3.8 mph NW6.1 kmh NW 4.0 mph6.4 kmh 29.68 in1005.1 mb 0.00 in0.0 mm 0.00 in0.0 mm 0.00 in0.0 mm
09:15 AM 68.2°F20.1°C 59.0°F15.0°C 71% 3.3 mph WNW5.3 kmh WNW 4.0 mph6.4 kmh 29.68 in1005.1 mb 0.00 in0.0 mm 0.00 in0.0 mm 0.00 in0.0 mm
09:10 AM 68.0°F20.0°C 59.0°F15.0°C 71% 2.5 mph SW4.0 kmh SW 2.9 mph4.7 kmh 29.68 in1005.1 mb 0.00 in0.0 mm 0.00 in0.0 mm 0.00 in0.0 mm
09:05 AM 68.0°F20.0°C 59.0°F15.0°C 71% 2.1 mph SW3.4 kmh SW 2.5 mph4.0 kmh 29.68 in1005.1 mb 0.00 in0.0 mm 0.00 in0.0 mm 0.00 in0.0 mm
09:00 AM 67.6°F19.8°C 59.0°F15.0°C 73% 2.0 mph WSW3.2 kmh WSW 2.0 mph3.2 kmh 29.68 in1005.1 mb 0.00 in0.0 mm 0.00 in0.0 mm 0.00 in0.0 mm
08:55 AM 67.5°F19.7°C 59.0°F15.0°C 73% 3.5 mph WSW5.6 kmh WSW 8.7 mph14.0 kmh 29.68 in1005.1 mb 0.00 in0.0 mm 0.00 in0.0 mm 0.00 in0.0 mm
08:50 AM 67.5°F19.7°C 59.0°F15.0°C 73% 5.5 mph WSW8.9 kmh WSW 8.7 mph14.0 kmh 29.68 in1005.1 mb 0.00 in0.0 mm 0.00 in0.0 mm 0.00 in0.0 mm
08:45 AM 67.3°F19.6°C 59.0°F15.0°C 73% 6.3 mph WSW10.1 kmh WSW 8.7 mph14.0 kmh 29.68 in1005.1 mb 0.00 in0.0 mm 0.00 in0.0 mm 0.00 in0.0 mm
08:40 AM 66.9°F19.4°C 57.2°F14.0°C 73% 6.4 mph WSW10.3 kmh WSW 8.1 mph13.0 kmh 29.68 in1005.1 mb 0.00 in0.0 mm 0.00 in0.0 mm 0.00 in0.0 mm
08:35 AM 66.6°F19.2°C 59.0°F15.0°C 74% 4.1 mph SW6.6 kmh SW 8.1 mph13.0 kmh 29.68 in1005.1 mb 0.00 in0.0 mm 0.00 in0.0 mm 0.00 in0.0 mm
08:30 AM 66.2°F19.0°C 57.2°F14.0°C 74% 3.6 mph SW5.8 kmh SW 8.5 mph13.7 kmh 29.68 in1005.1 mb 0.00 in0.0 mm 0.00 in0.0 mm 0.00 in0.0 mm
08:20 AM 65.8°F18.8°C 57.2°F14.0°C 75% 3.7 mph SSW6.0 kmh SSW 6.3 mph10.1 kmh 29.68 in1005.1 mb 0.00 in0.0 mm 0.00 in0.0 mm 0.00 in0.0 mm
08:15 AM 66.0°F18.9°C 59.0°F15.0°C 75% 3.6 mph SSW5.8 kmh SSW 6.3 mph10.1 kmh 29.68 in1005.1 mb 0.00 in0.0 mm 0.00 in0.0 mm 0.00 in0.0 mm
08:10 AM 66.0°F18.9°C 59.0°F15.0°C 75% 5.0 mph S8.0 kmh S 12.3 mph19.8 kmh 29.68 in1005.1 mb 0.00 in0.0 mm 0.00 in0.0 mm 0.00 in0.0 mm
08:05 AM 66.2°F19.0°C 57.2°F14.0°C 73% 4.7 mph S7.6 kmh S 12.3 mph19.8 kmh 29.68 in1005.1 mb 0.00 in0.0 mm 0.00 in0.0 mm 0.00 in0.0 mm
08:00 AM 66.6°F19.2°C 59.0°F15.0°C 74% 3.3 mph S5.3 kmh S 6.7 mph10.8 kmh 29.68 in1005.1 mb 0.00 in0.0 mm 0.00 in0.0 mm 0.00 in0.0 mm
07:55 AM 66.6°F19.2°C 57.2°F14.0°C 73% 3.9 mph SSW6.3 kmh SSW 6.0 mph9.7 kmh 29.68 in1005.1 mb 0.00 in0.0 mm 0.00 in0.0 mm 0.00 in0.0 mm
07:50 AM 66.6°F19.2°C 57.2°F14.0°C 73% 5.6 mph SW9.0 kmh SW 6.0 mph9.7 kmh 29.68 in1005.1 mb 0.00 in0.0 mm 0.00 in0.0 mm 0.00 in0.0 mm
07:45 AM 66.7°F19.3°C 57.2°F14.0°C 73% 7.3 mph SSW11.7 kmh SSW 13.2 mph21.2 kmh 29.68 in1005.1 mb 0.00 in0.0 mm 0.00 in0.0 mm 0.00 in0.0 mm
07:40 AM 66.7°F19.3°C 57.2°F14.0°C 73% 6.8 mph SSW10.9 kmh SSW 13.2 mph21.2 kmh 29.68 in1005.1 mb 0.00 in0.0 mm 0.00 in0.0 mm 0.00 in0.0 mm
07:35 AM 66.9°F19.4°C 59.0°F15.0°C 74% 4.8 mph SSW7.7 kmh SSW 11.0 mph17.7 kmh 29.68 in1005.1 mb 0.00 in0.0 mm 0.00 in0.0 mm 0.00 in0.0 mm
07:30 AM 66.6°F19.2°C 59.0°F15.0°C 75% 3.9 mph SSW6.3 kmh SSW 6.0 mph9.7 kmh 29.68 in1005.1 mb 0.00 in0.0 mm 0.00 in0.0 mm 0.00 in0.0 mm
07:25 AM 65.7°F18.7°C 57.2°F14.0°C 76% 4.6 mph SW7.4 kmh SW 5.6 mph9.0 kmh 29.68 in1005.1 mb 0.00 in0.0 mm 0.00 in0.0 mm 0.00 in0.0 mm
07:20 AM 65.3°F18.5°C 59.0°F15.0°C 77% 3.6 mph WSW5.8 kmh WSW 3.6 mph5.8 kmh 29.68 in1005.1 mb 0.00 in0.0 mm 0.00 in0.0 mm 0.00 in0.0 mm
07:15 AM 64.9°F18.3°C 57.2°F14.0°C 76% 3.6 mph WSW5.8 kmh WSW 3.6 mph5.8 kmh 29.68 in1005.1 mb 0.00 in0.0 mm 0.00 in0.0 mm 0.00 in0.0 mm
07:10 AM 64.8°F18.2°C 57.2°F14.0°C 77% 3.7 mph SW6.0 kmh SW 4.3 mph6.9 kmh 29.68 in1005.1 mb 0.00 in0.0 mm 0.00 in0.0 mm 0.00 in0.0 mm
07:05 AM 64.8°F18.2°C 57.2°F14.0°C 77% 3.6 mph SSW5.8 kmh SSW 4.3 mph6.9 kmh 29.68 in1005.1 mb 0.00 in0.0 mm 0.00 in0.0 mm 0.00 in0.0 mm
07:00 AM 64.6°F18.1°C 57.2°F14.0°C 77% 3.5 mph SSW5.6 kmh SSW 6.0 mph9.7 kmh 29.68 in1005.1 mb 0.00 in0.0 mm 0.00 in0.0 mm 0.00 in0.0 mm
06:55 AM 64.0°F17.8°C 57.2°F14.0°C 77% 4.0 mph SW6.4 kmh SW 6.0 mph9.7 kmh 29.68 in1005.1 mb 0.00 in0.0 mm 0.00 in0.0 mm 0.00 in0.0 mm
06:50 AM 63.9°F17.7°C 57.2°F14.0°C 77% 3.9 mph SW6.3 kmh SW 5.4 mph8.7 kmh 29.71 in1006.1 mb 0.00 in0.0 mm 0.00 in0.0 mm 0.00 in0.0 mm
06:45 AM 63.5°F17.5°C 57.2°F14.0°C 77% 3.0 mph SW4.8 kmh SW 5.4 mph8.7 kmh 29.71 in1006.1 mb 0.00 in0.0 mm 0.00 in0.0 mm 0.00 in0.0 mm
06:40 AM 63.5°F17.5°C 57.2°F14.0°C 77% 2.6 mph SW4.2 kmh SW 5.8 mph9.3 kmh 29.71 in1006.1 mb 0.00 in0.0 mm 0.00 in0.0 mm 0.00 in0.0 mm
06:35 AM 63.3°F17.4°C 55.4°F13.0°C 77% 4.2 mph SSW6.8 kmh SSW 5.8 mph9.3 kmh 29.71 in1006.1 mb 0.00 in0.0 mm 0.00 in0.0 mm 0.00 in0.0 mm
06:30 AM 63.1°F17.3°C 55.4°F13.0°C 77% 4.3 mph SSW6.9 kmh SSW 5.8 mph9.3 kmh 29.71 in1006.1 mb 0.00 in0.0 mm 0.00 in0.0 mm 0.00 in0.0 mm
06:25 AM 63.1°F17.3°C 55.4°F13.0°C 77% 3.6 mph SSW5.8 kmh SSW 5.4 mph8.7 kmh 29.71 in1006.1 mb 0.00 in0.0 mm 0.00 in0.0 mm 0.00 in0.0 mm
06:20 AM 63.0°F17.2°C 55.4°F13.0°C 77% 3.1 mph SW5.0 kmh SW 3.6 mph5.8 kmh 29.71 in1006.1 mb 0.00 in0.0 mm 0.00 in0.0 mm 0.00 in0.0 mm
06:15 AM 62.8°F17.1°C 55.4°F13.0°C 77% 3.1 mph SSW5.0 kmh SSW 3.1 mph5.0 kmh 29.71 in1006.1 mb 0.00 in0.0 mm 0.00 in0.0 mm 0.00 in0.0 mm
06:10 AM 62.6°F17.0°C 55.4°F13.0°C 77% 3.1 mph SSW5.0 kmh SSW 3.1 mph5.0 kmh 29.71 in1006.1 mb 0.00 in0.0 mm 0.00 in0.0 mm 0.00 in0.0 mm
12:05 AM 64.4°F18.0°C 57.2°F14.0°C 75% 2.7 mph SSW4.3 kmh SSW 2.7 mph4.3 kmh 29.74 in1007.1 mb 0.00 in0.0 mm 0.00 in0.0 mm 0.00 in0.0 mm
12:00 AM 64.6°F18.1°C 57.2°F14.0°C 75% 2.7 mph SSW4.3 kmh SSW 2.7 mph4.3 kmh 29.74 in1007.1 mb 0.00 in0.0 mm 0.00 in0.0 mm 0.00 in0.0 mm